createdAt,value
2023-04-14T00:00:30.254Z,20.33
2023-04-14T00:03:02.329Z,20.33
2023-04-14T00:05:39.988Z,20.31
2023-04-14T00:08:12.032Z,20.30
2023-04-14T00:10:47.834Z,20.29
2023-04-14T00:13:18.260Z,20.30
2023-04-14T00:15:46.431Z,20.29
2023-04-14T00:18:20.169Z,20.30
2023-04-14T00:20:51.140Z,20.30
2023-04-14T00:23:24.897Z,20.29
2023-04-14T00:25:55.965Z,20.27
2023-04-14T00:28:26.405Z,20.28
2023-04-14T00:31:00.375Z,20.28
2023-04-14T00:33:28.065Z,20.27
2023-04-14T00:35:55.717Z,20.27
2023-04-14T00:38:30.282Z,20.25
2023-04-14T00:40:57.772Z,20.25
2023-04-14T00:43:28.207Z,20.25
2023-04-14T00:45:59.172Z,20.24
2023-04-14T00:48:33.356Z,20.22
2023-04-14T00:51:04.990Z,20.22
2023-04-14T00:53:35.618Z,20.21
2023-04-14T00:56:08.928Z,20.21
2023-04-14T00:58:39.818Z,20.21
2023-04-14T01:01:10.539Z,20.20
2023-04-14T01:03:42.555Z,20.19
2023-04-14T01:06:15.263Z,20.19
2023-04-14T01:08:46.548Z,20.19
2023-04-14T01:11:46.254Z,20.17
2023-04-14T01:14:17.496Z,20.17
2023-04-14T01:16:54.393Z,20.14
2023-04-14T01:20:01.948Z,20.14
2023-04-14T01:23:06.679Z,20.13
2023-04-14T01:25:53.829Z,20.14
2023-04-14T01:28:30.168Z,20.11
2023-04-14T01:31:30.817Z,20.10
2023-04-14T01:34:14.256Z,20.09
2023-04-14T01:37:09.596Z,20.08
2023-04-14T01:40:06.201Z,20.10
2023-04-14T01:42:41.329Z,20.08
2023-04-14T01:45:17.351Z,20.07
2023-04-14T01:47:52.217Z,20.06
2023-04-14T01:50:27.433Z,20.05
2023-04-14T01:53:05.029Z,20.03
2023-04-14T01:55:40.849Z,20.03
2023-04-14T01:58:13.473Z,20.02
2023-04-14T02:00:44.881Z,20.03
2023-04-14T02:03:16.532Z,20.01
2023-04-14T02:05:49.467Z,20.03
2023-04-14T02:08:19.531Z,20.01
2023-04-14T02:10:52.070Z,20.01
2023-04-14T02:13:23.292Z,20.00
2023-04-14T02:15:54.277Z,20.00
2023-04-14T02:18:27.813Z,19.99
2023-04-14T02:21:02.445Z,19.99
2023-04-14T02:23:33.373Z,19.99
2023-04-14T02:26:14.338Z,19.98
2023-04-14T02:28:59.954Z,19.95
2023-04-14T02:31:34.668Z,19.97
2023-04-14T02:34:07.075Z,19.97
2023-04-14T02:36:54.070Z,19.96
2023-04-14T02:39:31.092Z,19.95
2023-04-14T02:42:12.141Z,19.93
2023-04-14T02:45:03.538Z,19.94
2023-04-14T02:47:41.100Z,19.92
2023-04-14T02:50:17.553Z,19.92
2023-04-14T02:52:50.842Z,19.92
2023-04-14T02:55:25.800Z,19.91
2023-04-14T02:58:00.264Z,19.91
2023-04-14T03:00:28.757Z,19.88
2023-04-14T03:03:00.702Z,19.88
2023-04-14T03:05:43.635Z,19.89
2023-04-14T03:08:16.389Z,19.88
2023-04-14T03:10:48.348Z,19.87
2023-04-14T03:13:24.484Z,19.86
2023-04-14T03:15:58.628Z,19.87
2023-04-14T03:18:29.565Z,19.85
2023-04-14T03:21:05.742Z,19.85
2023-04-14T03:23:39.393Z,19.84
2023-04-14T03:26:12.865Z,19.84
2023-04-14T03:28:43.187Z,19.83
2023-04-14T03:31:14.242Z,19.81
2023-04-14T03:33:49.094Z,19.81
2023-04-14T03:36:21.125Z,19.81
2023-04-14T03:38:57.038Z,19.82
2023-04-14T03:41:27.097Z,19.81
2023-04-14T03:43:55.416Z,19.80
2023-04-14T03:46:23.801Z,19.78
2023-04-14T03:48:59.875Z,19.79
2023-04-14T03:51:36.795Z,19.77
2023-04-14T03:54:11.718Z,19.77
2023-04-14T03:56:47.489Z,19.76
2023-04-14T03:59:20.859Z,19.76
2023-04-14T04:01:53.699Z,19.75
2023-04-14T04:04:25.553Z,19.74
2023-04-14T04:06:58.677Z,19.75
2023-04-14T04:09:27.955Z,19.77
2023-04-14T04:11:59.661Z,19.80
2023-04-14T04:14:34.919Z,19.82
2023-04-14T04:17:08.397Z,19.85
2023-04-14T04:19:39.832Z,19.89
2023-04-14T04:22:11.877Z,19.91
2023-04-14T04:24:40.771Z,19.94
2023-04-14T04:27:24.435Z,19.95
2023-04-14T04:30:02.662Z,19.96
2023-04-14T04:32:32.951Z,19.97
2023-04-14T04:35:03.952Z,19.99
2023-04-14T04:37:35.613Z,20.01
2023-04-14T04:40:03.158Z,20.00
2023-04-14T04:42:33.785Z,20.02
2023-04-14T04:45:04.568Z,20.02
2023-04-14T04:47:32.841Z,20.03
2023-04-14T04:50:07.147Z,20.04
2023-04-14T04:52:34.853Z,20.03
2023-04-14T04:55:05.092Z,20.04
2023-04-14T04:57:34.291Z,20.03
2023-04-14T05:00:09.102Z,20.02
2023-04-14T05:02:39.767Z,19.99
2023-04-14T05:05:11.336Z,19.98
2023-04-14T05:07:44.456Z,19.97
2023-04-14T05:10:12.437Z,19.96
2023-04-14T05:12:45.662Z,19.94
2023-04-14T05:15:22.662Z,19.94
2023-04-14T05:17:52.776Z,19.94
2023-04-14T05:20:30.036Z,19.98
2023-04-14T05:23:03.415Z,20.00
2023-04-14T05:25:34.439Z,20.02
2023-04-14T05:28:02.029Z,20.04
2023-04-14T05:30:29.742Z,20.03
2023-04-14T05:33:00.236Z,20.06
2023-04-14T05:35:33.622Z,20.00
2023-04-14T05:38:05.663Z,19.94
2023-04-14T05:40:34.337Z,19.83
2023-04-14T05:43:02.342Z,19.83
2023-04-14T05:45:32.837Z,19.84
2023-04-14T05:48:03.693Z,19.85
2023-04-14T05:50:33.638Z,19.86
2023-04-14T05:53:01.365Z,19.87
2023-04-14T05:55:29.460Z,19.87
2023-04-14T05:57:56.830Z,19.87
2023-04-14T06:00:28.068Z,19.86
2023-04-14T06:02:59.136Z,19.84
2023-04-14T06:05:26.850Z,19.82
2023-04-14T06:07:58.834Z,19.82
2023-04-14T06:10:29.442Z,19.81
2023-04-14T06:13:00.307Z,19.79
2023-04-14T06:15:33.581Z,19.79
2023-04-14T06:18:01.263Z,19.77
2023-04-14T06:20:32.618Z,19.75
2023-04-14T06:23:03.265Z,19.74
2023-04-14T06:25:31.254Z,19.73
2023-04-14T06:27:58.701Z,19.73
2023-04-14T06:30:28.822Z,19.69
2023-04-14T06:33:06.097Z,19.74
2023-04-14T06:35:34.194Z,19.77
2023-04-14T06:38:04.990Z,19.76
2023-04-14T06:40:35.149Z,19.78
2023-04-14T06:43:02.589Z,19.76
2023-04-14T06:45:30.675Z,19.75
2023-04-14T06:47:58.191Z,19.75
2023-04-14T06:50:31.735Z,19.74
2023-04-14T06:53:02.821Z,19.74
2023-04-14T06:55:35.573Z,19.74
2023-04-14T06:58:08.281Z,19.74
2023-04-14T07:00:35.958Z,19.77
2023-04-14T07:03:03.830Z,19.74
2023-04-14T07:05:40.409Z,19.73
2023-04-14T07:08:11.752Z,19.72
2023-04-14T07:10:39.376Z,19.70
2023-04-14T07:13:10.248Z,19.68
2023-04-14T07:15:38.688Z,19.64
2023-04-14T07:18:06.540Z,19.66
2023-04-14T07:20:37.841Z,19.62
2023-04-14T07:23:18.214Z,19.59
2023-04-14T07:25:56.515Z,19.60
2023-04-14T07:28:29.144Z,19.59
2023-04-14T07:30:57.066Z,19.59
2023-04-14T07:33:27.299Z,19.57
2023-04-14T07:36:02.057Z,19.57
2023-04-14T07:38:33.367Z,19.54
2023-04-14T07:41:05.331Z,19.55
2023-04-14T07:43:33.571Z,19.55
2023-04-14T07:46:08.948Z,19.55
2023-04-14T07:48:38.999Z,19.58
2023-04-14T07:51:06.718Z,19.59
2023-04-14T07:53:39.162Z,19.58
2023-04-14T07:56:09.718Z,19.56
2023-04-14T07:58:39.926Z,19.55
2023-04-14T08:01:08.094Z,19.54
2023-04-14T08:03:38.835Z,19.53
2023-04-14T08:06:13.831Z,19.52
2023-04-14T08:08:41.235Z,19.52
2023-04-14T08:11:11.668Z,19.52
2023-04-14T08:13:39.636Z,19.49
2023-04-14T08:16:10.494Z,19.48
2023-04-14T08:18:43.648Z,19.48
2023-04-14T08:21:15.089Z,19.48
2023-04-14T08:23:46.323Z,19.48
2023-04-14T08:26:17.015Z,19.47
2023-04-14T08:28:47.804Z,19.44
2023-04-14T08:31:23.527Z,19.45
2023-04-14T08:33:52.257Z,19.42
2023-04-14T08:36:20.391Z,19.42
2023-04-14T08:38:54.053Z,19.42
2023-04-14T08:41:25.640Z,19.40
2023-04-14T08:43:56.354Z,19.40
2023-04-14T08:46:29.355Z,19.40
2023-04-14T08:49:03.921Z,19.38
2023-04-14T08:51:35.919Z,19.37
2023-04-14T08:54:10.214Z,19.35
2023-04-14T08:56:41.097Z,19.36
2023-04-14T08:59:10.961Z,19.36
2023-04-14T09:01:41.889Z,19.36
2023-04-14T09:04:12.825Z,19.35
2023-04-14T09:06:46.209Z,19.34
2023-04-14T09:09:16.910Z,19.33
2023-04-14T09:11:45.178Z,19.33
2023-04-14T09:14:15.830Z,19.33
2023-04-14T09:16:47.028Z,19.31
2023-04-14T09:19:22.175Z,19.31
2023-04-14T09:21:55.264Z,19.31
2023-04-14T09:24:29.259Z,19.30
2023-04-14T09:27:02.486Z,19.28
2023-04-14T09:29:42.894Z,19.28
2023-04-14T09:32:14.218Z,19.27
2023-04-14T09:34:56.576Z,19.29
2023-04-14T09:37:56.845Z,19.26
2023-04-14T09:40:34.242Z,19.26
2023-04-14T09:43:01.786Z,19.26
2023-04-14T09:45:50.143Z,19.25
2023-04-14T09:48:20.396Z,19.25
2023-04-14T09:51:09.186Z,19.24
2023-04-14T09:53:38.463Z,19.23
2023-04-14T09:56:08.009Z,19.22
2023-04-14T09:58:38.817Z,19.22
2023-04-14T10:01:18.719Z,19.21
2023-04-14T10:03:53.138Z,19.20
2023-04-14T10:06:24.725Z,19.18
2023-04-14T10:08:57.242Z,19.20
2023-04-14T10:11:32.415Z,19.17
2023-04-14T10:14:04.968Z,19.16
2023-04-14T10:16:33.541Z,19.16
2023-04-14T10:19:07.386Z,19.16
2023-04-14T10:21:37.867Z,19.15
2023-04-14T10:24:08.123Z,19.13
2023-04-14T10:26:36.267Z,19.12
2023-04-14T10:29:04.757Z,19.12
2023-04-14T10:31:50.566Z,19.08
2023-04-14T10:34:19.598Z,19.09
2023-04-14T10:36:52.257Z,19.08
2023-04-14T10:39:25.587Z,19.10
2023-04-14T10:41:59.640Z,19.09
2023-04-14T10:44:35.371Z,19.09
2023-04-14T10:47:09.784Z,19.07
2023-04-14T10:49:42.321Z,19.07
2023-04-14T10:52:15.605Z,19.09
2023-04-14T10:55:09.788Z,19.10
2023-04-14T10:57:45.968Z,19.09
2023-04-14T11:00:29.650Z,19.10
2023-04-14T11:03:04.755Z,19.11
2023-04-14T11:06:07.306Z,19.10
2023-04-14T11:08:37.378Z,19.10
2023-04-14T11:11:12.145Z,19.12
2023-04-14T11:13:39.502Z,19.11
2023-04-14T11:16:13.112Z,19.09
2023-04-14T11:19:00.145Z,19.06
2023-04-14T11:21:30.111Z,19.08
2023-04-14T11:24:01.775Z,19.06
2023-04-14T11:26:34.100Z,19.07
2023-04-14T11:29:08.670Z,19.07
2023-04-14T11:31:36.277Z,19.05
2023-04-14T11:34:06.831Z,19.07
2023-04-14T11:36:37.311Z,19.06
2023-04-14T11:39:08.254Z,19.08
2023-04-14T11:41:38.486Z,19.10
2023-04-14T11:44:11.657Z,19.10
2023-04-14T11:46:41.562Z,19.12
2023-04-14T11:49:18.664Z,19.11
2023-04-14T11:51:52.923Z,19.13
2023-04-14T11:54:22.721Z,19.12
2023-04-14T11:56:50.323Z,19.15
2023-04-14T11:59:18.172Z,19.16
2023-04-14T12:01:52.527Z,19.13
2023-04-14T12:04:20.326Z,19.13
2023-04-14T12:06:52.705Z,19.10
2023-04-14T12:09:20.625Z,19.15
2023-04-14T12:11:55.386Z,19.13
2023-04-14T12:14:26.763Z,19.10
2023-04-14T12:16:57.210Z,19.11
2023-04-14T12:19:24.823Z,19.08
2023-04-14T12:21:52.801Z,19.07
2023-04-14T12:24:23.166Z,19.08
2023-04-14T12:26:50.710Z,19.09
2023-04-14T12:29:23.295Z,19.08
2023-04-14T12:31:54.450Z,19.09
2023-04-14T12:34:28.742Z,19.09
2023-04-14T12:37:00.820Z,19.08
2023-04-14T12:39:30.458Z,19.07
2023-04-14T12:41:59.300Z,19.04
2023-04-14T12:44:32.293Z,19.01
2023-04-14T12:46:59.882Z,19.00
2023-04-14T12:49:40.621Z,18.98
2023-04-14T12:52:11.407Z,18.94
2023-04-14T12:54:49.858Z,18.95
2023-04-14T12:57:18.011Z,18.94
2023-04-14T12:59:48.233Z,18.94
2023-04-14T13:02:17.797Z,18.96
2023-04-14T13:04:59.573Z,18.95
2023-04-14T13:07:33.234Z,18.95
2023-04-14T13:10:10.621Z,18.95
2023-04-14T13:12:49.028Z,18.93
2023-04-14T13:16:15.305Z,18.92
2023-04-14T13:18:55.584Z,18.90
2023-04-14T13:21:23.194Z,18.88
2023-04-14T13:23:50.782Z,18.92
2023-04-14T13:26:21.496Z,18.92
2023-04-14T13:28:50.224Z,18.94
2023-04-14T13:31:18.622Z,18.93
2023-04-14T13:33:46.355Z,18.94
2023-04-14T13:36:13.695Z,18.94
2023-04-14T13:38:41.933Z,18.94
2023-04-14T13:41:09.428Z,18.94
2023-04-14T13:43:40.182Z,18.96
2023-04-14T13:46:11.005Z,18.96
2023-04-14T13:48:46.013Z,18.95
2023-04-14T13:51:17.144Z,18.96
2023-04-14T13:53:44.681Z,18.96
2023-04-14T13:56:12.509Z,18.96
2023-04-14T13:58:42.548Z,18.95
2023-04-14T14:01:12.766Z,18.98
2023-04-14T14:03:41.523Z,19.00
2023-04-14T14:06:08.960Z,19.02
2023-04-14T14:08:36.038Z,19.01
2023-04-14T14:11:02.932Z,19.02
2023-04-14T14:13:32.820Z,19.01
2023-04-14T14:16:03.783Z,19.02
2023-04-14T14:18:36.805Z,19.05
2023-04-14T14:21:12.432Z,19.05
2023-04-14T14:23:42.728Z,19.06
2023-04-14T14:26:12.387Z,19.08
2023-04-14T14:28:39.298Z,19.10
2023-04-14T14:31:07.066Z,19.13
2023-04-14T14:33:34.968Z,19.15
2023-04-14T14:36:04.760Z,19.17
2023-04-14T14:38:31.714Z,19.20
2023-04-14T14:40:58.663Z,19.21
2023-04-14T14:43:28.567Z,19.22
2023-04-14T14:45:55.419Z,19.23
2023-04-14T14:48:29.105Z,19.23
2023-04-14T14:50:58.397Z,19.23
2023-04-14T14:53:28.379Z,19.23
2023-04-14T14:55:58.103Z,19.24
2023-04-14T14:58:24.981Z,19.21
2023-04-14T15:00:51.810Z,19.22
2023-04-14T15:03:22.239Z,19.22
2023-04-14T15:05:49.438Z,19.22
2023-04-14T15:08:16.228Z,19.21
2023-04-14T15:10:50.274Z,19.22
2023-04-14T15:13:19.479Z,19.22
2023-04-14T15:15:49.332Z,19.23
2023-04-14T15:18:16.404Z,19.26
2023-04-14T15:20:49.102Z,19.28
2023-04-14T15:23:20.137Z,19.30
2023-04-14T15:25:50.631Z,19.30
2023-04-14T15:28:20.654Z,19.32
2023-04-14T15:30:53.129Z,19.30
2023-04-14T15:33:21.400Z,19.29
2023-04-14T15:35:48.734Z,19.32
2023-04-14T15:38:17.276Z,19.34
2023-04-14T15:40:48.195Z,19.35
2023-04-14T15:43:18.605Z,19.35
2023-04-14T15:45:46.132Z,19.35
2023-04-14T15:48:13.954Z,19.36
2023-04-14T15:50:44.837Z,19.37
2023-04-14T15:53:16.117Z,19.37
2023-04-14T15:55:46.777Z,19.40
2023-04-14T15:58:17.744Z,19.40
2023-04-14T16:00:45.464Z,19.38
2023-04-14T16:03:16.004Z,19.41
2023-04-14T16:05:59.523Z,19.44
2023-04-14T16:08:29.876Z,19.46
2023-04-14T16:11:03.266Z,19.49
2023-04-14T16:13:36.231Z,19.51
2023-04-14T16:16:03.493Z,19.54
2023-04-14T16:18:33.753Z,19.55
2023-04-14T16:21:01.177Z,19.56
2023-04-14T16:23:31.804Z,19.58
2023-04-14T16:25:59.124Z,19.60
2023-04-14T16:28:29.634Z,19.65
2023-04-14T16:31:02.554Z,19.71
2023-04-14T16:33:35.356Z,19.72
2023-04-14T16:36:06.402Z,19.74
2023-04-14T16:38:43.190Z,19.77
2023-04-14T16:41:12.457Z,19.80
2023-04-14T16:43:41.106Z,19.80
2023-04-14T16:46:17.651Z,19.79
2023-04-14T16:48:45.111Z,19.78
2023-04-14T16:51:18.618Z,19.77
2023-04-14T16:53:51.886Z,19.76
2023-04-14T16:56:21.348Z,19.76
2023-04-14T16:58:48.943Z,19.74
2023-04-14T17:01:22.305Z,19.73
2023-04-14T17:03:52.192Z,19.72
2023-04-14T17:06:24.918Z,19.70
2023-04-14T17:08:52.637Z,19.70
2023-04-14T17:11:23.091Z,19.72
2023-04-14T17:13:55.358Z,19.71
2023-04-14T17:16:26.393Z,19.72
2023-04-14T17:18:59.948Z,19.73
2023-04-14T17:21:32.332Z,19.74
2023-04-14T17:24:09.886Z,19.78
2023-04-14T17:26:40.377Z,19.80
2023-04-14T17:29:07.902Z,19.84
2023-04-14T17:31:38.701Z,19.85
2023-04-14T17:34:09.761Z,19.90
2023-04-14T17:36:41.287Z,19.91
2023-04-14T17:39:12.296Z,19.92
2023-04-14T17:41:43.697Z,19.93
2023-04-14T17:44:14.669Z,19.92
2023-04-14T17:46:47.596Z,19.92
2023-04-14T17:49:18.350Z,19.91
2023-04-14T17:51:45.905Z,19.89
2023-04-14T17:54:16.354Z,19.89
2023-04-14T17:56:46.977Z,19.88
2023-04-14T17:59:18.315Z,19.89
2023-04-14T18:01:49.712Z,19.87
2023-04-14T18:04:29.116Z,19.87
2023-04-14T18:07:00.375Z,19.88
2023-04-14T18:09:31.509Z,19.87
2023-04-14T18:11:59.037Z,19.87
2023-04-14T18:14:29.983Z,19.91
2023-04-14T18:17:00.621Z,19.92
2023-04-14T18:19:28.594Z,19.93
2023-04-14T18:21:56.145Z,19.96
2023-04-14T18:29:36.446Z,19.97
2023-04-14T18:32:10.473Z,19.97
2023-04-14T18:34:37.855Z,19.96
2023-04-14T18:37:05.624Z,19.98
2023-04-14T18:39:36.960Z,19.99
2023-04-14T18:42:05.087Z,20.02
2023-04-14T18:44:39.132Z,20.03
2023-04-14T18:47:07.666Z,20.05
2023-04-14T18:49:34.964Z,20.05
2023-04-14T18:52:07.494Z,20.07
2023-04-14T18:54:38.375Z,20.09
2023-04-14T18:57:07.045Z,20.12
2023-04-14T18:59:40.314Z,20.14
2023-04-14T19:02:13.213Z,20.17
2023-04-14T19:04:43.695Z,20.21
2023-04-14T19:07:10.858Z,20.24
2023-04-14T19:09:40.979Z,20.24
2023-04-14T19:12:15.543Z,20.25
2023-04-14T19:14:55.810Z,20.29
2023-04-14T19:17:25.229Z,20.31
2023-04-14T19:19:57.705Z,20.34
2023-04-14T19:22:25.058Z,20.37
2023-04-14T19:24:52.030Z,20.38
2023-04-14T19:27:22.370Z,20.40
2023-04-14T19:29:52.664Z,20.43
2023-04-14T19:32:19.962Z,20.43
2023-04-14T19:34:46.964Z,20.45
2023-04-14T19:37:14.966Z,20.48
2023-04-14T19:39:45.352Z,20.52
2023-04-14T19:42:16.552Z,20.51
2023-04-14T19:44:48.940Z,20.46
2023-04-14T19:47:16.272Z,20.47
2023-04-14T19:49:46.526Z,20.51
2023-04-14T19:52:17.000Z,20.51
2023-04-14T19:54:47.082Z,20.52
2023-04-14T19:57:16.646Z,20.55
2023-04-14T19:59:44.107Z,20.56
2023-04-14T20:02:14.051Z,20.57
2023-04-14T20:04:41.496Z,20.59
2023-04-14T20:07:11.817Z,20.61
2023-04-14T20:09:39.249Z,20.62
2023-04-14T20:12:11.957Z,20.62
2023-04-14T20:14:42.439Z,20.62
2023-04-14T20:17:09.740Z,20.63
2023-04-14T20:19:40.083Z,20.66
2023-04-14T20:22:09.425Z,20.66
2023-04-14T20:24:36.370Z,20.66
2023-04-14T20:27:06.521Z,20.66
2023-04-14T20:29:36.511Z,20.67
2023-04-14T20:32:08.865Z,20.68
2023-04-14T20:34:35.907Z,20.68
2023-04-14T20:37:06.373Z,20.69
2023-04-14T20:39:33.478Z,20.71
2023-04-14T20:42:00.524Z,20.71
2023-04-14T20:44:33.945Z,20.71
2023-04-14T20:47:02.109Z,20.71
2023-04-14T20:49:33.027Z,20.69
2023-04-14T20:52:02.633Z,20.68
2023-04-14T20:54:35.531Z,20.68
2023-04-14T20:57:05.554Z,20.67
2023-04-14T20:59:32.704Z,20.65
2023-04-14T21:01:59.861Z,20.63
2023-04-14T21:04:27.700Z,20.62
2023-04-14T21:06:57.788Z,20.60
2023-04-14T21:09:31.143Z,20.58
2023-04-14T21:12:16.130Z,20.55
2023-04-14T21:15:31.371Z,20.55
2023-04-14T21:17:34.643Z,20.52
2023-04-14T21:20:05.428Z,20.52
2023-04-14T21:22:35.923Z,20.46
2023-04-14T21:25:09.659Z,20.45
2023-04-14T21:27:36.552Z,20.42
2023-04-14T21:30:03.675Z,20.40
2023-04-14T21:32:30.845Z,20.42
2023-04-14T21:35:00.754Z,20.38
2023-04-14T21:37:32.715Z,20.34
2023-04-14T21:40:02.926Z,20.31
2023-04-14T21:42:38.346Z,20.29
2023-04-14T21:45:06.542Z,20.26
2023-04-14T21:47:34.037Z,20.25
2023-04-14T21:50:01.103Z,20.21
2023-04-14T21:52:31.493Z,20.19
2023-04-14T21:54:58.481Z,20.19
2023-04-14T21:57:45.570Z,20.17
2023-04-14T22:00:12.788Z,20.14
2023-04-14T22:02:40.151Z,20.13
2023-04-14T22:05:07.711Z,20.11
2023-04-14T22:07:34.693Z,20.10
2023-04-14T22:10:03.138Z,20.08
2023-04-14T22:12:36.561Z,20.07
2023-04-14T22:15:07.699Z,20.04
2023-04-14T22:17:41.820Z,20.03
2023-04-14T22:20:12.611Z,20.00
2023-04-14T22:22:42.984Z,19.98
2023-04-14T22:25:12.108Z,19.97
2023-04-14T22:27:44.742Z,19.97
2023-04-14T22:30:15.409Z,19.96
2023-04-14T22:32:45.710Z,19.95
2023-04-14T22:35:12.625Z,19.94
2023-04-14T22:37:40.202Z,19.92
2023-04-14T22:40:11.533Z,19.89
2023-04-14T22:42:39.342Z,19.90
2023-04-14T22:45:10.766Z,19.88
2023-04-14T22:47:41.521Z,19.89
2023-04-14T22:50:11.838Z,19.87
2023-04-14T22:52:41.630Z,19.87
2023-04-14T22:55:08.873Z,19.84
2023-04-14T22:57:38.912Z,19.84
2023-04-14T23:00:06.871Z,19.85
2023-04-14T23:02:34.244Z,19.84
2023-04-14T23:05:01.795Z,19.82
2023-04-14T23:07:34.956Z,19.80
2023-04-14T23:10:01.718Z,19.79
2023-04-14T23:12:29.091Z,19.82
2023-04-14T23:14:56.450Z,19.80
2023-04-14T23:17:26.831Z,19.79
2023-04-14T23:19:54.835Z,19.79
2023-04-14T23:22:25.154Z,19.77
2023-04-14T23:24:58.519Z,19.75
2023-04-14T23:27:25.752Z,19.77
2023-04-14T23:29:52.707Z,19.76
2023-04-14T23:32:21.513Z,19.74
2023-04-14T23:34:48.492Z,19.72
2023-04-14T23:37:20.900Z,19.73
2023-04-14T23:39:50.911Z,19.71
2023-04-14T23:42:18.265Z,19.71
2023-04-14T23:44:50.444Z,19.70
2023-04-14T23:47:18.322Z,19.68
2023-04-14T23:49:45.227Z,19.68
2023-04-14T23:52:12.206Z,19.67
2023-04-14T23:54:39.727Z,19.66
2023-04-14T23:57:10.021Z,19.65
2023-04-14T23:59:36.971Z,19.65
